Scotland, Georgia
Current Conditions -  °F | °C
As of 9:55 PM on Wednesday 22 Oct 2014 (Local Time) from KAZE Reporting Station
Clear Clear  
Wind Chill: 60°   Ceiling: Unl
Heat Index: 60°   Visibility: 10mi
Dew Point: 48°   Wind: 3mph
Humidity: 64%   Direction: 360°N
Pressure: 30.07"   Gusts: NA
Location:  32.05°N, 82.82°W
Report Text: KAZE 230155Z AUTO 36003KT 10SM CLR 15/09 A3007 RMK AO2 T01540087
Loading
Personal Weather Stations






























Interactive Weather Map New forecast layout! Learn more

10-Day Weather Forecast

Advertisements
Track Severe Weather on mobile